Thunder radar more information blitzortung!


Radar de pluja more information rain snow radar


Visita la nostra xarxa de llocs de meteo:

Template documentation
and downloads

And another site



Wind From: 11-12-2017 11:00 Until: 14:59 warning for: Wind Level: Yellow info button

Pagina Historial Weather Underground text

Diari Resum Juny 18, 2017 Unitats:  Mètric    Imperial   Tant
« Previous Dia
SegĂźent Dia »
Diari Setmana Mensual Anual Personalitzada
  Maxima: Minima: Media:
Temperatura: 34.5 °C 20.1 °C 26.4 °C
Punt de rosada: 18.6 °C 13.1 °C 17 °C
Humitat: 85 % 29 % 59 %
Wind Speed: 18.5 km/h 0.0 km/h 5.2 km/h
RĂ fegues de vent: 20.9 km/h - -
Vent:- - ESE
Pression baro: 1015.8 hPa 1012.8 hPa -
Precipitacions: 0.0 mm    
Historical Graphs
 
 
Dades de taula per Juny 18, 2017
Temps Temperatura Punt de rosada Pression baro Vent Wind Speed RĂ fegues de vent Humitat Rainfall Rate (Hourly)
00:00 21.5 °C 18.5 °C 1013.8 hPa Calm   3.2 km/h 83 % 0.0 mm
00:04 24.2 °C 17.9 °C 1013.8 hPa SW 3.7 km/h 3.7 km/h 68 % 0.0 mm
00:09 24.2 °C 18.2 °C 1013.8 hPa SW 3.7 km/h 3.7 km/h 69 % 0.0 mm
00:10 21.2 °C 18.2 °C 1012.8 hPa East 1.6 km/h 1.6 km/h 83 % 0.0 mm
00:20 21.1 °C 18.1 °C 1012.8 hPa South 1.6 km/h   83 % 0.0 mm
00:30 21.0 °C 18.2 °C 1012.8 hPa Calm     84 % 0.0 mm
00:40 20.8 °C 18.0 °C 1013.8 hPa Calm     84 % 0.0 mm
00:50 20.7 °C 18.1 °C 1013.8 hPa Calm     85 % 0.0 mm
01:00 20.6 °C 18.0 °C 1012.8 hPa Calm     85 % 0.0 mm
01:10 20.4 °C 17.6 °C 1012.8 hPa Calm   1.6 km/h 84 % 0.0 mm
01:20 20.3 °C 17.5 °C 1012.8 hPa Calm   1.6 km/h 84 % 0.0 mm
01:30 20.1 °C 17.3 °C 1012.8 hPa Calm     84 % 0.0 mm
01:40 20.1 °C 17.3 °C 1013.8 hPa Calm     84 % 0.0 mm
01:50 20.1 °C 17.5 °C 1013.8 hPa Calm   1.6 km/h 85 % 0.0 mm
02:00 20.5 °C 17.9 °C 1012.8 hPa Calm   1.6 km/h 85 % 0.0 mm
02:10 20.7 °C 17.7 °C 1013.8 hPa NE 1.6 km/h 1.6 km/h 83 % 0.0 mm
02:20 21.0 °C 17.8 °C 1013.8 hPa NE 1.6 km/h 1.6 km/h 82 % 0.0 mm
02:30 21.4 °C 18.0 °C 1013.8 hPa Calm     81 % 0.0 mm
02:40 21.8 °C 18.0 °C 1013.8 hPa Calm   1.6 km/h 79 % 0.0 mm
02:50 22.1 °C 17.4 °C 1013.8 hPa ENE 4.8 km/h 4.8 km/h 75 % 0.0 mm
03:00 22.1 °C 17.4 °C 1013.8 hPa NE 4.8 km/h 6.4 km/h 75 % 0.0 mm
03:10 22.5 °C 17.6 °C 1013.8 hPa NE 3.2 km/h 4.8 km/h 74 % 0.0 mm
03:20 22.6 °C 17.5 °C 1013.8 hPa NE 3.2 km/h 6.4 km/h 73 % 0.0 mm
03:30 23.3 °C 18.2 °C 1013.8 hPa Calm   4.8 km/h 73 % 0.0 mm
03:40 23.4 °C 18.1 °C 1012.8 hPa NE 3.2 km/h 4.8 km/h 72 % 0.0 mm
03:50 24.1 °C 18.3 °C 1012.8 hPa NE 3.2 km/h 6.4 km/h 70 % 0.0 mm
04:00 24.2 °C 18.2 °C 1013.8 hPa NE 3.2 km/h 4.8 km/h 69 % 0.0 mm
04:10 24.4 °C 17.9 °C 1013.8 hPa NE 3.2 km/h 6.4 km/h 67 % 0.0 mm
04:20 25.0 °C 17.7 °C 1013.8 hPa NE 4.8 km/h 4.8 km/h 64 % 0.0 mm
04:30 25.5 °C 17.9 °C 1012.8 hPa NNE 1.6 km/h 4.8 km/h 63 % 0.0 mm
04:40 25.6 °C 17.8 °C 1013.8 hPa NNE 1.6 km/h 6.4 km/h 62 % 0.0 mm
04:50 26.3 °C 18.4 °C 1013.8 hPa NE 3.2 km/h 6.4 km/h 62 % 0.0 mm
05:00 26.5 °C 18.6 °C 1013.8 hPa ENE 4.8 km/h 6.4 km/h 62 % 0.0 mm
05:10 26.6 °C 18.4 °C 1013.8 hPa NE 4.8 km/h 6.4 km/h 61 % 0.0 mm
05:20 27.1 °C 18.4 °C 1013.8 hPa NE 4.8 km/h 8.0 km/h 59 % 0.0 mm
05:30 27.2 °C 17.9 °C 1013.8 hPa ENE 8.0 km/h 9.7 km/h 57 % 0.0 mm
05:40 28.2 °C 18.3 °C 1013.8 hPa ENE 3.2 km/h 8.0 km/h 55 % 0.0 mm
05:50 28.2 °C 17.7 °C 1013.8 hPa East 8.0 km/h 8.0 km/h 53 % 0.0 mm
06:00 28.5 °C 17.7 °C 1013.8 hPa ESE 4.8 km/h 9.7 km/h 52 % 0.0 mm
06:10 28.5 °C 17.1 °C 1013.8 hPa ESE 8.0 km/h 12.9 km/h 50 % 0.0 mm
06:20 29.6 °C 18.1 °C 1013.8 hPa SE 3.2 km/h 9.7 km/h 50 % 0.0 mm
06:30 29.5 °C 17.7 °C 1013.8 hPa East 4.8 km/h 9.7 km/h 49 % 0.0 mm
06:40 29.4 °C 16.9 °C 1012.8 hPa East 11.3 km/h 11.3 km/h 47 % 0.0 mm
06:50 29.5 °C 17.0 °C 1012.8 hPa ESE 4.8 km/h 11.3 km/h 47 % 0.0 mm
07:00 29.9 °C 17.0 °C 1013.8 hPa ESE 8.0 km/h 8.0 km/h 46 % 0.0 mm
07:10 30.1 °C 17.2 °C 1013.8 hPa ESE 4.8 km/h 12.9 km/h 46 % 0.0 mm
07:20 30.0 °C 16.8 °C 1013.8 hPa East 9.7 km/h 11.3 km/h 45 % 0.0 mm
07:30 30.0 °C 16.1 °C 1013.8 hPa East 9.7 km/h 12.9 km/h 43 % 0.0 mm
07:40 30.3 °C 16.7 °C 1013.8 hPa ESE 9.7 km/h 14.5 km/h 44 % 0.0 mm
07:50 30.2 °C 16.6 °C 1013.8 hPa ESE 9.7 km/h 12.9 km/h 44 % 0.0 mm
08:00 30.0 °C 16.8 °C 1014.8 hPa ESE 11.3 km/h 17.7 km/h 45 % 0.0 mm
08:10 29.9 °C 17.0 °C 1013.8 hPa East 11.3 km/h 16.1 km/h 46 % 0.0 mm
08:20 30.3 °C 17.1 °C 1013.8 hPa East 9.7 km/h 9.7 km/h 45 % 0.0 mm
08:30 30.4 °C 17.1 °C 1013.8 hPa ESE 8.0 km/h 9.7 km/h 45 % 0.0 mm
08:40 30.8 °C 17.5 °C 1012.8 hPa ESE 9.7 km/h 20.9 km/h 45 % 0.0 mm
08:50 30.7 °C 17.1 °C 1012.8 hPa ESE 12.9 km/h 12.9 km/h 44 % 0.0 mm
09:00 31.0 °C 16.9 °C 1013.8 hPa ESE 9.7 km/h 16.1 km/h 43 % 0.0 mm
09:10 31.8 °C 16.9 °C 1013.8 hPa ESE 8.0 km/h 9.7 km/h 41 % 0.0 mm
09:20 32.7 °C 17.7 °C 1013.8 hPa SE 4.8 km/h 8.0 km/h 41 % 0.0 mm
09:30 32.7 °C 17.3 °C 1013.8 hPa SE 3.2 km/h 6.4 km/h 40 % 0.0 mm
09:40 33.3 °C 16.2 °C 1012.8 hPa SSW 8.0 km/h 9.7 km/h 36 % 0.0 mm
09:50 33.9 °C 16.3 °C 1012.8 hPa SW 9.7 km/h 9.7 km/h 35 % 0.0 mm
10:00 33.9 °C 16.3 °C 1012.8 hPa SW 8.0 km/h 8.0 km/h 35 % 0.0 mm
10:10 34.1 °C 16.4 °C 1013.8 hPa SSW 4.8 km/h 9.7 km/h 35 % 0.0 mm
10:20 34.1 °C 16.0 °C 1013.8 hPa SSW 8.0 km/h 11.3 km/h 34 % 0.0 mm
10:30 33.8 °C 15.7 °C 1012.8 hPa SW 3.2 km/h 12.9 km/h 34 % 0.0 mm
10:40 33.7 °C 15.7 °C 1012.8 hPa SW 9.7 km/h 9.7 km/h 34 % 0.0 mm
10:50 33.9 °C 15.8 °C 1012.8 hPa SW 11.3 km/h 11.3 km/h 34 % 0.0 mm
11:00 34.0 °C 15.4 °C 1012.8 hPa SW 4.8 km/h 12.9 km/h 33 % 0.0 mm
11:10 33.8 °C 15.3 °C 1013.8 hPa SW 8.0 km/h 16.1 km/h 33 % 0.0 mm
11:20 34.4 °C 15.3 °C 1013.8 hPa SW 4.8 km/h 9.7 km/h 32 % 0.0 mm
11:30 34.1 °C 14.6 °C 1013.8 hPa WSW 8.0 km/h 9.7 km/h 31 % 0.0 mm
11:40 33.9 °C 14.9 °C 1013.8 hPa SW 4.8 km/h 14.5 km/h 32 % 0.0 mm
11:50 33.9 °C 14.9 °C 1013.8 hPa SW 4.8 km/h 14.5 km/h 32 % 0.0 mm
12:00 34.5 °C 14.4 °C 1012.8 hPa SW 4.8 km/h 8.0 km/h 30 % 0.0 mm
12:10 33.6 °C 13.1 °C 1012.8 hPa SW 8.0 km/h 14.5 km/h 29 % 0.0 mm
12:20 34.0 °C 14.0 °C 1012.8 hPa SW 4.8 km/h 11.3 km/h 30 % 0.0 mm
12:30 33.9 °C 13.9 °C 1013.8 hPa SW 9.7 km/h 9.7 km/h 30 % 0.0 mm
12:40 33.9 °C 14.4 °C 1012.8 hPa SW 4.8 km/h 14.5 km/h 31 % 0.0 mm
12:50 33.9 °C 13.9 °C 1012.8 hPa SSW 3.2 km/h 9.7 km/h 30 % 0.0 mm
13:00 33.7 °C 13.7 °C 1013.8 hPa SW 4.8 km/h 8.0 km/h 30 % 0.0 mm
13:10 33.6 °C 13.6 °C 1013.8 hPa WSW 4.8 km/h 9.7 km/h 30 % 0.0 mm
13:20 33.5 °C 13.6 °C 1013.8 hPa SW 8.0 km/h 9.7 km/h 30 % 0.0 mm
13:30 33.3 °C 13.4 °C 1012.8 hPa SW 11.3 km/h 11.3 km/h 30 % 0.0 mm
13:40 33.0 °C 13.1 °C 1012.8 hPa SW 9.7 km/h 9.7 km/h 30 % 0.0 mm
13:50 32.8 °C 13.4 °C 1012.8 hPa WSW 8.0 km/h 14.5 km/h 31 % 0.0 mm
14:00 32.6 °C 13.3 °C 1013.8 hPa SW 9.7 km/h 9.7 km/h 31 % 0.0 mm
14:10 32.5 °C 13.7 °C 1012.8 hPa SW 4.8 km/h 8.0 km/h 32 % 0.0 mm
14:20 31.5 °C 14.2 °C 1012.8 hPa WSW 3.2 km/h 4.8 km/h 35 % 0.0 mm
19:10 23.3 °C 17.3 °C 1015.8 hPa NNE 1.6 km/h 1.6 km/h 69 % 0.0 mm
19:20 23.2 °C 17.4 °C 1015.8 hPa NNE 1.6 km/h 1.6 km/h 70 % 0.0 mm
19:29 29.9 °C 15.6 °C 1013.8 hPa ENE 13.0 km/h 13.0 km/h 42 % 0.0 mm
19:30 23.1 °C 17.3 °C 1015.8 hPa Calm   1.6 km/h 70 % 0.0 mm
19:34 29.3 °C 15.8 °C 1013.8 hPa ESE 9.3 km/h 9.3 km/h 44 % 0.0 mm
19:39 29.0 °C 16.2 °C 1013.8 hPa SE 14.8 km/h 14.8 km/h 46 % 0.0 mm
19:40 23.0 °C 17.2 °C 1014.8 hPa Calm     70 % 0.0 mm
19:44 28.7 °C 16.9 °C 1013.8 hPa ESE 18.5 km/h 18.5 km/h 49 % 0.0 mm
19:49 28.4 °C 17.3 °C 1013.8 hPa East 16.7 km/h 16.7 km/h 51 % 0.0 mm
19:50 22.9 °C 17.3 °C 1014.8 hPa Calm     71 % 0.0 mm
19:54 28.3 °C 17.2 °C 1013.8 hPa East 12.2 km/h 12.2 km/h 51 % 0.0 mm
19:59 28.2 °C 17.7 °C 1013.8 hPa NNE 7.4 km/h 7.4 km/h 53 % 0.0 mm
20:00 22.9 °C 17.3 °C 1015.8 hPa Calm   3.2 km/h 71 % 0.0 mm
20:04 28.1 °C 17.6 °C 1013.8 hPa SE 13.0 km/h 13.0 km/h 53 % 0.0 mm
20:09 27.9 °C 18.0 °C 1013.8 hPa East 9.5 km/h 9.5 km/h 55 % 0.0 mm
20:10 22.8 °C 17.3 °C 1015.8 hPa Calm     71 % 0.0 mm
20:14 27.6 °C 18.1 °C 1013.8 hPa ESE 11.1 km/h 11.1 km/h 56 % 0.0 mm
20:19 27.2 °C 17.9 °C 1013.8 hPa ENE 14.8 km/h 14.8 km/h 57 % 0.0 mm
20:20 22.7 °C 17.4 °C 1015.8 hPa Calm     72 % 0.0 mm
20:24 27.0 °C 18.1 °C 1013.8 hPa ENE 13.0 km/h 13.0 km/h 58 % 0.0 mm
20:29 26.7 °C 18.3 °C 1013.8 hPa ENE 11.1 km/h 11.1 km/h 60 % 0.0 mm
20:30 22.6 °C 17.3 °C 1015.8 hPa Calm     72 % 0.0 mm
20:34 26.6 °C 18.2 °C 1013.8 hPa ESE 9.7 km/h 9.7 km/h 60 % 0.0 mm
20:39 26.5 °C 18.4 °C 1013.8 hPa ENE 9.3 km/h 9.3 km/h 61 % 0.0 mm
20:40 22.3 °C 17.0 °C 1015.8 hPa Calm     72 % 0.0 mm
20:44 26.3 °C 18.2 °C 1013.8 hPa ENE 9.3 km/h 9.3 km/h 61 % 0.0 mm
20:49 26.1 °C 18.2 °C 1013.8 hPa ENE 8.7 km/h 8.7 km/h 62 % 0.0 mm
20:50 22.3 °C 17.2 °C 1015.8 hPa Calm     73 % 0.0 mm
20:54 26.1 °C 18.0 °C 1013.8 hPa ENE 7.4 km/h 7.4 km/h 61 % 0.0 mm
20:59 25.9 °C 17.8 °C 1013.8 hPa NE 7.4 km/h 7.4 km/h 61 % 0.0 mm
21:00 22.2 °C 16.9 °C 1015.8 hPa WNW 1.6 km/h 1.6 km/h 72 % 0.0 mm
21:04 25.8 °C 17.7 °C 1013.8 hPa East 7.4 km/h 7.4 km/h 61 % 0.0 mm
21:09 25.7 °C 17.9 °C 1013.8 hPa ENE 7.4 km/h 7.4 km/h 62 % 0.0 mm
21:10 22.2 °C 17.1 °C 1015.8 hPa Calm     73 % 0.0 mm
21:14 25.6 °C 17.8 °C 1012.8 hPa NE 9.3 km/h 9.3 km/h 62 % 0.0 mm
21:19 25.5 °C 17.7 °C 1012.8 hPa NNE 7.4 km/h 7.4 km/h 62 % 0.0 mm
21:20 22.1 °C 17.2 °C 1015.8 hPa Calm     74 % 0.0 mm
21:24 25.4 °C 17.6 °C 1012.8 hPa ENE 7.4 km/h 7.4 km/h 62 % 0.0 mm
21:25 25.3 °C 17.5 °C 1012.8 hPa ENE 5.6 km/h 5.6 km/h 62 % 0.0 mm
21:30 25.2 °C 17.4 °C 1013.8 hPa East 7.4 km/h 7.4 km/h 62 % 0.0 mm
21:35 25.2 °C 17.4 °C 1013.8 hPa East 5.6 km/h 5.6 km/h 62 % 0.0 mm
21:40 25.1 °C 17.3 °C 1013.8 hPa ENE 6.4 km/h 6.4 km/h 62 % 0.0 mm
21:45 25.0 °C 17.2 °C 1013.8 hPa ENE 7.4 km/h 7.4 km/h 62 % 0.0 mm
21:50 24.9 °C 17.6 °C 1013.8 hPa ENE 9.5 km/h 9.5 km/h 64 % 0.0 mm
21:51 24.9 °C 17.6 °C 1013.8 hPa ENE 9.5 km/h 9.5 km/h 64 % 0.0 mm
21:56 24.8 °C 17.8 °C 1013.8 hPa NNE 7.4 km/h 7.4 km/h 65 % 0.0 mm
22:00 21.5 °C 16.9 °C 1014.8 hPa Calm   1.6 km/h 75 % 0.0 mm
22:01 24.7 °C 17.7 °C 1013.8 hPa ENE 7.4 km/h 7.4 km/h 65 % 0.0 mm
22:06 24.6 °C 17.6 °C 1013.8 hPa ENE 3.7 km/h 3.7 km/h 65 % 0.0 mm
22:10 21.4 °C 17.0 °C 1014.8 hPa North 1.6 km/h 3.2 km/h 76 % 0.0 mm
22:11 24.5 °C 17.7 °C 1013.8 hPa East 6.4 km/h 6.4 km/h 66 % 0.0 mm
22:16 24.5 °C 17.7 °C 1014.8 hPa SSE 5.6 km/h 5.6 km/h 66 % 0.0 mm
22:20 21.4 °C 17.0 °C 1014.8 hPa NE 1.6 km/h 1.6 km/h 76 % 0.0 mm
22:21 24.4 °C 17.6 °C 1014.8 hPa NE 4.2 km/h 4.2 km/h 66 % 0.0 mm
22:26 24.3 °C 17.6 °C 1014.8 hPa East 5.6 km/h 5.6 km/h 66 % 0.0 mm
22:30 21.4 °C 17.0 °C 1014.8 hPa Calm   3.2 km/h 76 % 0.0 mm
22:31 24.3 °C 17.6 °C 1014.8 hPa NE 5.6 km/h 5.6 km/h 66 % 0.0 mm
22:36 24.2 °C 17.4 °C 1014.8 hPa ENE 7.4 km/h 7.4 km/h 66 % 0.0 mm
22:40 21.3 °C 16.9 °C 1014.8 hPa Calm     76 % 0.0 mm
22:41 24.2 °C 17.4 °C 1014.8 hPa NE 5.6 km/h 5.6 km/h 66 % 0.0 mm
22:46 24.2 °C 17.4 °C 1015.8 hPa East 3.9 km/h 3.9 km/h 66 % 0.0 mm
22:50 21.3 °C 17.1 °C 1015.8 hPa Calm     77 % 0.0 mm
22:51 24.1 °C 17.6 °C 1015.8 hPa ENE 3.7 km/h 3.7 km/h 67 % 0.0 mm
22:56 24.1 °C 17.6 °C 1015.8 hPa NNE 3.7 km/h 3.7 km/h 67 % 0.0 mm
23:00 20.8 °C 16.6 °C 1015.8 hPa NNE 1.6 km/h 3.2 km/h 77 % 0.0 mm
23:01 24.1 °C 17.6 °C 1015.8 hPa ENE 3.9 km/h 3.9 km/h 67 % 0.0 mm
23:06 24.0 °C 17.5 °C 1015.8 hPa ENE 3.7 km/h 3.7 km/h 67 % 0.0 mm
23:10 20.8 °C 16.8 °C 1015.8 hPa West 1.6 km/h 1.6 km/h 78 % 0.0 mm
23:11 24.0 °C 17.5 °C 1015.8 hPa ENE 2.3 km/h 2.3 km/h 67 % 0.0 mm
23:16 23.9 °C 17.6 °C 1015.8 hPa ENE 3.7 km/h 3.7 km/h 68 % 0.0 mm
23:20 20.7 °C 16.7 °C 1015.8 hPa NE 1.6 km/h 3.2 km/h 78 % 0.0 mm
23:21 23.9 °C 17.6 °C 1015.8 hPa ENE 3.7 km/h 3.7 km/h 68 % 0.0 mm
23:26 23.9 °C 17.6 °C 1015.8 hPa NE 3.7 km/h 3.7 km/h 68 % 0.0 mm
23:30 20.7 °C 16.7 °C 1015.8 hPa Calm   3.2 km/h 78 % 0.0 mm
23:31 23.8 °C 17.8 °C 1015.8 hPa NE 3.7 km/h 3.7 km/h 69 % 0.0 mm
23:36 23.8 °C 17.8 °C 1015.8 hPa NE 3.7 km/h   69 % 0.0 mm
23:40 20.6 °C 16.6 °C 1015.8 hPa NE 3.2 km/h 4.8 km/h 78 % 0.0 mm
23:41 23.7 °C 17.7 °C 1015.8 hPa NNE 1.9 km/h   69 % 0.0 mm
23:46 23.6 °C 17.6 °C 1015.8 hPa NNE 3.9 km/h 3.9 km/h 69 % 0.0 mm
23:50 20.3 °C 16.3 °C 1015.8 hPa NE 1.6 km/h 3.2 km/h 78 % 0.0 mm
23:51 23.5 °C 17.5 °C 1015.8 hPa NNE 3.9 km/h 3.9 km/h 69 % 0.0 mm
23:56 23.5 °C 17.5 °C 1015.8 hPa NNE 1.9 km/h   69 % 0.0 mm
Meteo Sesrovires
Elogis d' Weather Underground - 3.5 mb

Guio original per  Jim McMurry - jmcmurry@mwt.net Adaptat per a la plantilla per  Wim van der Kuil - Leuven-Template.eu

Trobareu la nostra informacio del temps tambe a:

Weather Underground

AWEKAS